Time;durP1;ratioP1;P1;durP2;ratioP2;P2;SDS_P1;SDS_P2;PMS_P1;PMS_P2;Temp;Humidity;BMP_temperature;BMP_pressure;BME280_temperature;BME280_humidity;BME280_pressure;Samples;Min_cycle;Max_cycle;Signal;HPM_P1;HPM_P2
2020/12/21 00:00:35;;;;;;;50.08;17.32;;;;;;;-0.17;100.00;101090.16;1767684;81;22353;-79
2020/12/21 00:03:04;;;;;;;42.03;16.67;;;;;;;-0.18;100.00;101091.20;1765530;81;20907;-80
2020/12/21 00:05:31;;;;;;;43.98;17.65;;;;;;;-0.20;100.00;101089.23;1767675;81;20895;-80
2020/12/21 00:08:02;;;;;;;37.20;16.05;;;;;;;-0.19;100.00;101087.36;1767638;80;21018;-80
2020/12/21 00:10:32;;;;;;;41.83;17.12;;;;;;;-0.17;100.00;101087.98;1767842;80;21006;-80
2020/12/21 00:13:00;;;;;;;36.40;14.65;;;;;;;-0.18;100.00;101088.50;1767637;81;21239;-81
2020/12/21 00:15:30;;;;;;;36.28;15.58;;;;;;;-0.18;100.00;101092.55;1767612;81;21005;-78
2020/12/21 00:17:58;;;;;;;40.85;17.40;;;;;;;-0.19;100.00;101090.89;1767702;81;20974;-79
2020/12/21 00:20:25;;;;;;;43.25;18.17;;;;;;;-0.17;100.00;101083.94;1767632;81;20930;-80
2020/12/21 00:22:53;;;;;;;36.68;16.30;;;;;;;-0.17;100.00;101094.73;1767664;81;20931;-78
2020/12/21 00:25:20;;;;;;;35.75;16.05;;;;;;;-0.15;100.00;101091.30;1744072;81;21214;-78
2020/12/21 00:27:48;;;;;;;45.25;18.80;;;;;;;-0.12;100.00;101090.38;1767627;81;21014;-79
2020/12/21 00:30:16;;;;;;;43.85;18.30;;;;;;;-0.08;100.00;101091.61;1767612;81;20938;-80
2020/12/21 00:32:44;;;;;;;42.67;17.37;;;;;;;-0.06;100.00;101092.23;1767672;80;21497;-78
2020/12/21 00:35:12;;;;;;;38.85;16.55;;;;;;;-0.06;100.00;101085.48;1767624;79;21132;-84
2020/12/21 00:37:39;;;;;;;44.18;18.73;;;;;;;-0.05;100.00;101095.77;1767613;81;21361;-87
2020/12/21 00:40:07;;;;;;;43.58;16.87;;;;;;;-0.05;100.00;101089.02;1776049;80;20933;-89
2020/12/21 00:42:35;;;;;;;37.45;17.20;;;;;;;-0.05;100.00;101094.42;1740253;82;21466;-89
2020/12/21 00:45:04;;;;;;;37.78;15.80;;;;;;;-0.05;100.00;101093.07;1724354;83;20900;-91
2020/12/21 00:47:33;;;;;;;44.58;17.45;;;;;;;-0.04;100.00;101090.68;1740582;82;21023;-85
2020/12/21 00:50:01;;;;;;;40.43;17.52;;;;;;;-0.06;100.00;101088.70;1740315;82;21432;-80
2020/12/21 00:52:29;;;;;;;48.85;19.32;;;;;;;-0.05;100.00;101095.25;1779869;80;20930;-86
2020/12/21 00:54:58;;;;;;;48.42;20.02;;;;;;;-0.03;100.00;101089.64;1740267;82;20990;-84
2020/12/21 00:57:33;;;;;;;50.92;19.48;;;;;;;-0.04;100.00;101086.11;1724121;83;22142;-84
2020/12/21 01:00:01;;;;;;;42.23;17.70;;;;;;;-0.05;100.00;101083.09;1740120;82;21557;-83
2020/12/21 01:02:30;;;;;;;40.03;17.37;;;;;;;-0.08;99.97;101082.69;1740332;82;21376;-85
2020/12/21 01:04:57;;;;;;;46.55;17.67;;;;;;;-0.13;99.90;101077.91;1779862;80;20946;-80
2020/12/21 01:07:26;;;;;;;37.70;16.50;;;;;;;-0.17;99.88;101075.32;1740222;82;20895;-80
2020/12/21 01:09:54;;;;;;;42.25;15.95;;;;;;;-0.17;99.97;101079.89;1740238;82;21033;-81
2020/12/21 01:12:21;;;;;;;36.90;15.55;;;;;;;-0.18;99.98;101076.88;1725712;82;21014;-80
2020/12/21 01:14:51;;;;;;;40.00;15.78;;;;;;;-0.19;99.94;101086.84;1779918;80;21260;-80
2020/12/21 01:17:18;;;;;;;37.50;15.70;;;;;;;-0.20;99.93;101085.18;1779922;80;21595;-78
2020/12/21 01:19:46;;;;;;;45.30;16.37;;;;;;;-0.17;100.00;101082.58;1779985;80;21071;-79
2020/12/21 01:22:14;;;;;;;40.58;15.70;;;;;;;-0.13;100.00;101080.61;1779944;80;21473;-78
2020/12/21 01:24:42;;;;;;;37.35;15.32;;;;;;;-0.10;100.00;101080.20;1779940;80;21069;-78
2020/12/21 01:27:10;;;;;;;36.42;16.57;;;;;;;-0.09;100.00;101071.06;1740262;82;21346;-78
2020/12/21 01:29:37;;;;;;;36.88;15.35;;;;;;;-0.08;100.00;101075.42;1709278;83;20944;-80
2020/12/21 01:32:05;;;;;;;34.65;14.90;;;;;;;-0.10;99.89;101073.45;1779905;80;20926;-81
2020/12/21 01:34:33;;;;;;;36.15;15.03;;;;;;;-0.12;99.82;101073.34;1779842;80;20914;-80
2020/12/21 01:37:00;;;;;;;35.08;13.95;;;;;;;-0.13;99.91;101070.33;1740244;82;21005;-79
2020/12/21 01:39:29;;;;;;;32.85;15.40;;;;;;;-0.13;100.00;101070.33;1713215;83;21324;-82
2020/12/21 01:41:57;;;;;;;37.55;15.30;;;;;;;-0.18;99.85;101069.61;1722556;83;20943;-82
2020/12/21 01:44:25;;;;;;;40.03;16.42;;;;;;;-0.20;99.78;101065.45;1734748;82;20947;-81
2020/12/21 01:46:52;;;;;;;38.90;17.12;;;;;;;-0.21;99.82;101063.80;1734810;82;21478;-79
2020/12/21 01:49:22;;;;;;;39.27;17.27;;;;;;;-0.21;99.87;101060.58;1754112;81;21014;-80
2020/12/21 01:51:50;;;;;;;37.95;15.32;;;;;;;-0.20;99.92;101064.94;1731270;81;21223;-81
2020/12/21 01:54:18;;;;;;;34.73;14.65;;;;;;;-0.20;99.87;101060.05;1753966;81;21030;-81
2020/12/21 01:56:46;;;;;;;39.15;16.10;;;;;;;-0.23;99.76;101065.35;1754097;81;20950;-81
2020/12/21 01:59:13;;;;;;;30.60;13.30;;;;;;;-0.24;99.72;101071.78;1754053;81;20934;-81
2020/12/21 02:01:42;;;;;;;33.33;14.70;;;;;;;-0.25;99.76;101067.43;1754207;81;21017;-81
2020/12/21 02:04:11;;;;;;;35.30;14.13;;;;;;;-0.25;99.80;101070.64;1730598;81;21218;-83
2020/12/21 02:06:39;;;;;;;34.90;15.00;;;;;;;-0.23;99.85;101069.92;1730978;81;21141;-82
2020/12/21 02:09:06;;;;;;;33.83;13.85;;;;;;;-0.22;99.94;101067.02;1754251;81;20934;-87
2020/12/21 02:11:42;;;;;;;35.17;14.65;;;;;;;-0.17;100.00;101063.17;1754446;81;21061;-88
2020/12/21 02:14:10;;;;;;;34.78;14.85;;;;;;;-0.14;100.00;101060.58;1754299;81;21120;-88
2020/12/21 02:16:37;;;;;;;34.10;14.90;;;;;;;-0.14;99.92;101063.27;1754299;81;21771;-86
2020/12/21 02:19:05;;;;;;;39.88;16.57;;;;;;;-0.17;99.80;101068.57;1754035;81;20974;-80
2020/12/21 02:21:33;;;;;;;38.48;15.83;;;;;;;-0.20;99.70;101063.59;1754072;81;21081;-82
2020/12/21 02:24:01;;;;;;;35.03;14.95;;;;;;;-0.23;99.63;101061.30;1754134;81;21026;-84
2020/12/21 02:26:29;;;;;;;38.55;15.28;;;;;;;-0.25;99.61;101062.03;1754315;81;21568;-84
2020/12/21 02:28:59;;;;;;;39.00;16.52;;;;;;;-0.24;99.66;101060.16;1754174;81;21385;-81
2020/12/21 02:31:27;;;;;;;35.43;15.83;;;;;;;-0.25;99.65;101057.98;1754175;81;21537;-81
2020/12/21 02:33:54;;;;;;;44.60;16.35;;;;;;;-0.28;99.61;101061.09;1754202;81;21057;-82
2020/12/21 02:36:22;;;;;;;33.53;13.75;;;;;;;-0.30;99.60;101063.69;1754228;80;21556;-79
2020/12/21 02:38:50;;;;;;;38.38;15.35;;;;;;;-0.31;99.64;101062.86;1754205;81;21549;-89
2020/12/21 02:41:18;;;;;;;35.58;15.88;;;;;;;-0.29;99.75;101064.00;1741052;81;21163;-86
2020/12/21 02:43:47;;;;;;;31.97;14.87;;;;;;;-0.30;99.81;101052.38;1779982;80;21560;-87
2020/12/21 02:46:16;;;;;;;34.53;15.58;;;;;;;-0.28;99.85;101053.00;1740383;82;21489;-87
2020/12/21 02:48:44;;;;;;;33.85;14.98;;;;;;;-0.29;99.87;101058.08;1740367;82;20938;-87
2020/12/21 02:51:16;;;;;;;29.07;13.40;;;;;;;-0.31;99.74;101059.33;1724250;83;20994;-87
2020/12/21 02:53:44;;;;;;;41.02;14.60;;;;;;;-0.35;99.67;101054.34;1740561;82;21382;-86
2020/12/21 02:56:12;;;;;;;38.85;15.95;;;;;;;-0.36;99.64;101047.30;1740407;82;21062;-88
2020/12/21 02:58:40;;;;;;;33.25;15.60;;;;;;;-0.37;99.70;101047.50;1780067;80;21528;-88
2020/12/21 03:01:08;;;;;;;32.55;14.13;;;;;;;-0.34;99.86;101052.48;1740443;82;20950;-79
2020/12/21 03:03:35;;;;;;;32.98;15.13;;;;;;;-0.32;99.92;101052.27;1724271;83;21094;-80
2020/12/21 03:06:03;;;;;;;35.03;15.75;;;;;;;-0.32;99.87;101054.45;1740379;82;21381;-80
2020/12/21 03:08:30;;;;;;;38.08;15.93;;;;;;;-0.33;99.79;101054.14;1740277;81;21161;-80
2020/12/21 03:10:58;;;;;;;31.65;14.33;;;;;;;-0.38;99.65;101056.11;1779989;80;20918;-80
2020/12/21 03:13:25;;;;;;;32.55;13.98;;;;;;;-0.40;99.61;101054.14;1779962;80;20918;-80
2020/12/21 03:15:53;;;;;;;35.95;15.28;;;;;;;-0.40;99.66;101056.84;1740359;82;20935;-80
2020/12/21 03:18:20;;;;;;;33.35;15.20;;;;;;;-0.39;99.68;101056.31;1724270;83;22074;-79
2020/12/21 03:20:48;;;;;;;35.60;15.65;;;;;;;-0.37;99.76;101057.77;1740341;82;21183;-80
2020/12/21 03:23:15;;;;;;;39.23;16.50;;;;;;;-0.34;99.74;101061.41;1779943;80;21148;-81
2020/12/21 03:25:44;;;;;;;33.58;15.15;;;;;;;-0.32;99.71;101057.67;1740333;82;20958;-79
2020/12/21 03:28:11;;;;;;;35.28;14.85;;;;;;;-0.32;99.60;101061.20;1724200;83;20935;-81
2020/12/21 03:30:39;;;;;;;31.55;14.30;;;;;;;-0.30;99.57;101058.30;1740316;82;21185;-81
2020/12/21 03:33:06;;;;;;;34.67;15.53;;;;;;;-0.30;99.57;101056.42;1740401;82;21519;-81
2020/12/21 03:35:34;;;;;;;34.70;16.07;;;;;;;-0.30;99.52;101060.47;1740348;81;21557;-83
2020/12/21 03:38:02;;;;;;;39.95;16.87;;;;;;;-0.30;99.46;101052.38;1740420;82;21506;-80
2020/12/21 03:40:30;;;;;;;37.35;16.67;;;;;;;-0.30;99.42;101056.94;1740179;82;21094;-80
2020/12/21 03:42:57;;;;;;;32.42;15.15;;;;;;;-0.29;99.39;101054.55;1740372;82;21378;-79
2020/12/21 03:45:25;;;;;;;37.65;15.63;;;;;;;-0.28;99.37;101057.05;1740304;82;20955;-82
2020/12/21 03:47:52;;;;;;;42.67;17.65;;;;;;;-0.25;99.46;101057.98;1779990;80;20970;-79
2020/12/21 03:50:20;;;;;;;48.75;18.02;;;;;;;-0.23;99.47;101065.35;1740294;82;21663;-84
2020/12/21 03:52:49;;;;;;;47.85;19.70;;;;;;;-0.23;99.34;101065.35;1740370;82;21619;-81
2020/12/21 03:55:17;;;;;;;49.60;19.85;;;;;;;-0.25;99.30;101063.38;1724159;83;21741;-81
2020/12/21 03:57:44;;;;;;;47.48;18.50;;;;;;;-0.25;99.25;101067.95;1740314;82;20959;-83
2020/12/21 04:00:12;;;;;;;48.70;18.20;;;;;;;-0.30;99.20;101063.69;1740402;82;21537;-86
2020/12/21 04:02:41;;;;;;;45.70;17.25;;;;;;;-0.32;99.20;101066.59;1779882;80;20970;-86
2020/12/21 04:05:09;;;;;;;48.68;17.98;;;;;;;-0.33;99.30;101064.94;1740396;82;21065;-83
2020/12/21 04:07:36;;;;;;;41.15;16.17;;;;;;;-0.35;99.22;101058.91;1740424;82;21473;-86
2020/12/21 04:10:05;;;;;;;40.78;16.65;;;;;;;-0.38;99.23;101064.20;1725734;82;21061;-84
2020/12/21 04:12:35;;;;;;;40.10;14.25;;;;;;;-0.39;99.28;101062.55;1779985;80;20886;-83
2020/12/21 04:15:04;;;;;;;59.40;17.02;;;;;;;-0.40;99.28;101065.45;1779854;80;21100;-85
2020/12/21 04:17:32;;;;;;;45.30;18.17;;;;;;;-0.41;99.29;101066.48;1779969;80;21587;-88
2020/12/21 04:20:00;;;;;;;43.92;16.40;;;;;;;-0.44;99.24;101060.16;1779933;80;21380;-85
2020/12/21 04:22:28;;;;;;;43.00;17.73;;;;;;;-0.47;99.26;101065.45;1779860;80;21020;-83
2020/12/21 04:24:57;;;;;;;42.90;15.28;;;;;;;-0.47;99.31;101067.31;1740312;82;20955;-85
2020/12/21 04:27:25;;;;;;;41.83;15.23;;;;;;;-0.47;99.33;101061.91;1740316;82;21065;-87
2020/12/21 04:29:53;;;;;;;42.93;14.38;;;;;;;-0.48;99.42;101063.78;1725724;82;21085;-86
2020/12/21 04:32:21;;;;;;;42.23;15.20;;;;;;;-0.48;99.49;101065.13;1779903;80;21372;-80
2020/12/21 04:34:48;;;;;;;36.42;14.25;;;;;;;-0.45;99.53;101059.84;1740209;82;21159;-85
2020/12/21 04:37:16;;;;;;;38.58;12.88;;;;;;;-0.44;99.56;101060.16;1740335;82;21077;-79
2020/12/21 04:39:44;;;;;;;31.48;13.20;;;;;;;-0.42;99.60;101062.12;1724108;83;20963;-77
2020/12/21 04:42:11;;;;;;;39.13;14.33;;;;;;;-0.40;99.65;101059.53;1735256;82;21150;-87
2020/12/21 04:44:39;;;;;;;29.07;11.90;;;;;;;-0.40;99.53;101058.70;1722656;83;21385;-82
2020/12/21 04:47:06;;;;;;;34.65;12.95;;;;;;;-0.41;99.52;101055.69;1722204;83;20916;-84
2020/12/21 04:49:34;;;;;;;27.22;12.10;;;;;;;-0.42;99.46;101055.38;1671231;83;21486;-75
2020/12/21 04:52:05;;;;;;;37.80;13.05;;;;;;;-0.44;99.36;101061.50;1722321;83;21138;-77
2020/12/21 04:54:33;;;;;;;30.60;13.28;;;;;;;-0.46;99.37;101061.70;1722281;83;21087;-83
2020/12/21 04:57:01;;;;;;;29.42;12.00;;;;;;;-0.46;99.37;101059.02;1722334;83;21200;-79
2020/12/21 04:59:29;;;;;;;36.33;13.53;;;;;;;-0.44;99.49;101064.20;1734216;82;21576;-78
2020/12/21 05:01:57;;;;;;;42.38;16.87;;;;;;;-0.43;99.52;101057.77;1722337;83;21507;-83
2020/12/21 05:04:25;;;;;;;36.30;14.60;;;;;;;-0.44;99.45;101056.94;1722278;83;21095;-83
2020/12/21 05:06:53;;;;;;;33.83;15.38;;;;;;;-0.45;99.43;101056.63;1722302;83;20991;-77
2020/12/21 05:09:22;;;;;;;36.58;16.30;;;;;;;-0.43;99.49;101063.16;1722241;83;21218;-85
2020/12/21 05:12:03;;;;;;;40.67;16.30;;;;;;;-0.45;99.45;101067.42;1730694;82;21156;-89
2020/12/21 05:14:35;;;;;;;42.00;17.15;;;;;;;-0.45;99.53;101068.77;1779686;79;21542;-76
2020/12/21 05:17:16;;;;;;;42.75;18.67;;;;;;;-0.46;99.53;101068.97;1760076;79;21571;-74
2020/12/21 05:19:44;;;;;;;46.18;18.15;;;;;;;-0.47;99.56;101070.84;1795514;79;21048;-78
2020/12/21 05:22:16;;;;;;;40.17;16.35;;;;;;;-0.49;99.59;101068.87;1777983;80;21188;-78
2020/12/21 05:24:44;;;;;;;46.70;18.67;;;;;;;-0.49;99.63;101069.38;1781078;79;21495;-76
2020/12/21 05:27:14;;;;;;;36.70;15.40;;;;;;;-0.49;99.66;101078.83;1779415;79;21543;-78
2020/12/21 05:29:54;;;;;;;37.48;15.72;;;;;;;-0.48;99.74;101075.92;1776229;80;21126;-80
2020/12/21 05:32:22;;;;;;;39.42;16.00;;;;;;;-0.49;99.75;101072.91;1783234;79;21138;-79
2020/12/21 05:34:50;;;;;;;48.55;17.07;;;;;;;-0.49;99.79;101074.27;1774645;80;21329;-87
2020/12/21 05:37:19;;;;;;;39.03;16.87;;;;;;;-0.49;99.82;101081.52;1777277;79;21181;-77
2020/12/21 05:39:55;;;;;;;43.63;17.30;;;;;;;-0.50;99.88;101075.30;1783612;79;21119;-80
2020/12/21 05:42:26;;;;;;;45.70;17.15;;;;;;;-0.49;99.92;101079.66;1781762;79;21126;-77
2020/12/21 05:45:03;;;;;;;40.28;15.65;;;;;;;-0.49;99.94;101072.08;1778375;80;21204;-84
2020/12/21 05:47:31;;;;;;;43.87;17.40;;;;;;;-0.50;100.00;101073.12;1786572;79;21372;-80
2020/12/21 05:50:04;;;;;;;41.45;16.87;;;;;;;-0.47;100.00;101066.80;1783205;79;21156;-79
2020/12/21 05:52:35;;;;;;;45.30;16.55;;;;;;;-0.43;100.00;101074.78;1779492;80;21007;-81
2020/12/21 05:55:10;;;;;;;36.73;14.87;;;;;;;-0.41;100.00;101073.23;1786095;79;21144;-82
2020/12/21 05:57:39;;;;;;;40.90;16.02;;;;;;;-0.40;100.00;101080.29;1778831;80;21059;-80
2020/12/21 06:00:09;;;;;;;42.83;16.85;;;;;;;-0.39;100.00;101080.60;1777807;80;21458;-84
2020/12/21 06:02:37;;;;;;;37.30;16.12;;;;;;;-0.39;100.00;101079.25;1778384;80;21078;-76
2020/12/21 06:05:09;;;;;;;40.52;15.72;;;;;;;-0.39;100.00;101076.03;1777300;80;20929;-77
2020/12/21 06:07:38;;;;;;;36.63;15.38;;;;;;;-0.39;100.00;101081.95;1777943;80;21463;-79
2020/12/21 06:10:07;;;;;;;40.75;16.55;;;;;;;-0.39;100.00;101077.39;1777872;80;21055;-77
2020/12/21 06:12:47;;;;;;;33.65;15.63;;;;;;;-0.39;100.00;101079.25;1777932;80;21359;-77
2020/12/21 06:15:18;;;;;;;36.70;15.08;;;;;;;-0.37;100.00;101083.92;1777879;80;20909;-77
2020/12/21 06:17:46;;;;;;;43.68;17.37;;;;;;;-0.37;100.00;101083.92;1777953;80;21467;-79
2020/12/21 06:20:15;;;;;;;38.13;16.23;;;;;;;-0.37;100.00;101083.41;1776878;80;20953;-85
2020/12/21 06:22:43;;;;;;;49.27;18.90;;;;;;;-0.35;100.00;101093.48;1778001;80;20937;-83
2020/12/21 06:25:12;;;;;;;45.60;19.67;;;;;;;-0.34;100.00;101087.56;1778072;80;21554;-78
2020/12/21 06:27:41;;;;;;;52.60;20.82;;;;;;;-0.34;100.00;101089.73;1728169;80;21142;-76
2020/12/21 06:30:16;;;;;;;46.37;18.05;;;;;;;-0.31;100.00;101085.80;1777808;80;21125;-76
2020/12/21 06:32:42;;;;;;;41.55;17.02;;;;;;;-0.30;100.00;101082.06;1777860;80;21566;-76
2020/12/21 06:35:18;;;;;;;44.38;17.00;;;;;;;-0.28;100.00;101086.73;1777796;80;21134;-80
2020/12/21 06:38:02;;;;;;;43.75;18.07;;;;;;;-0.27;100.00;101083.00;1778100;80;21470;-76
2020/12/21 06:40:35;;;;;;;36.88;15.38;;;;;;;-0.24;100.00;101089.84;1778511;80;21154;-79
2020/12/21 06:43:14;;;;;;;37.88;15.23;;;;;;;-0.23;100.00;101089.64;1775818;80;20987;-79
2020/12/21 06:45:43;;;;;;;36.17;16.23;;;;;;;-0.23;100.00;101084.77;1775482;80;21034;-77
2020/12/21 06:48:21;;;;;;;38.08;16.20;;;;;;;-0.23;100.00;101088.81;1775278;80;21032;-75
2020/12/21 06:50:48;;;;;;;31.23;15.18;;;;;;;-0.20;100.00;101089.75;1775140;80;21425;-77
2020/12/21 06:53:16;;;;;;;36.28;16.12;;;;;;;-0.18;100.00;101083.63;1775706;80;20932;-81
2020/12/21 06:55:44;;;;;;;38.13;17.02;;;;;;;-0.19;100.00;101082.80;1775010;80;21153;-79
2020/12/21 06:58:11;;;;;;;50.83;20.75;;;;;;;-0.16;100.00;101090.99;1775109;80;21039;-74
2020/12/21 07:00:39;;;;;;;48.65;20.62;;;;;;;-0.12;100.00;101094.94;1775045;80;21133;-74
2020/12/21 07:03:07;;;;;;;46.98;19.62;;;;;;;-0.08;100.00;101091.61;1774447;80;21203;-74
2020/12/21 07:05:35;;;;;;;47.95;19.90;;;;;;;-0.02;100.00;101100.23;1774884;80;20968;-79
2020/12/21 07:08:05;;;;;;;55.95;22.32;;;;;;;0.04;100.00;101096.36;1774867;80;21515;-74
2020/12/21 07:10:33;;;;;;;59.50;25.23;;;;;;;0.10;100.00;101094.17;1774865;80;20983;-74
2020/12/21 07:13:01;;;;;;;54.08;22.02;;;;;;;0.15;100.00;101099.77;1749484;80;21109;-74
2020/12/21 07:15:30;;;;;;;50.73;21.02;;;;;;;0.14;100.00;101095.41;1749758;80;22246;-73
2020/12/21 07:17:58;;;;;;;53.58;22.77;;;;;;;0.13;99.88;101099.16;1774948;80;20956;-73
2020/12/21 07:20:27;;;;;;;48.30;19.98;;;;;;;0.09;99.68;101101.44;1774919;80;21016;-73
2020/12/21 07:22:55;;;;;;;43.90;18.75;;;;;;;0.05;99.54;101101.55;1774948;80;21570;-81
2020/12/21 07:25:23;;;;;;;39.67;17.35;;;;;;;0.05;99.54;101099.37;1724529;80;21531;-77
2020/12/21 07:27:51;;;;;;;37.03;17.62;;;;;;;0.06;99.55;101095.63;1775013;80;21554;-74
2020/12/21 07:33:07;;;;;;;37.40;15.50;;;;;;;0.15;99.61;101095.72;1888714;76;22378;-75
2020/12/21 07:35:36;;;;;;;38.00;16.65;;;;;;;0.11;99.57;101098.02;1746334;80;20991;-76
2020/12/21 07:38:11;;;;;;;35.92;15.18;;;;;;;0.14;99.59;101100.81;1756126;81;21418;-72
2020/12/21 07:40:40;;;;;;;31.77;14.73;;;;;;;0.15;99.47;101104.66;1734349;82;21044;-72
2020/12/21 07:43:12;;;;;;;30.10;13.88;;;;;;;0.14;99.27;101099.47;1756127;81;21009;-76
2020/12/21 07:45:40;;;;;;;;;;;;;;;0.14;99.20;101094.06;1736949;82;20940;-77
2020/12/21 07:48:08;;;;;;;38.70;15.38;;;;;;;0.17;99.21;101097.70;1736072;82;20492;-76
2020/12/21 07:50:36;;;;;;;34.25;15.83;;;;;;;0.17;99.15;101096.34;1756051;81;22345;-80
2020/12/21 07:53:03;;;;;;;38.92;17.02;;;;;;;0.18;99.18;101093.44;1707538;82;21498;-92
2020/12/21 07:55:31;;;;;;;38.53;16.80;;;;;;;0.24;99.35;101093.12;1728610;81;20958;-88
2020/12/21 07:57:58;;;;;;;38.02;16.32;;;;;;;0.28;99.36;101092.48;1707398;82;20994;-79
2020/12/21 08:00:27;;;;;;;36.05;15.93;;;;;;;0.29;99.12;101091.97;1728870;81;21584;-80
2020/12/21 08:02:59;;;;;;;35.95;17.57;;;;;;;0.25;98.80;101090.20;1734451;82;22278;-85
2020/12/21 08:05:26;;;;;;;34.83;15.70;;;;;;;0.23;98.68;101095.51;1756151;81;21600;-85
2020/12/21 08:07:54;;;;;;;37.15;16.40;;;;;;;0.22;98.63;101093.33;1734391;82;20955;-88
2020/12/21 08:10:22;;;;;;;38.88;16.97;;;;;;;0.23;98.66;101090.94;1728615;81;21520;-76
2020/12/21 08:12:50;;;;;;;40.00;18.17;;;;;;;0.30;98.78;101097.67;1734285;82;21586;-73
2020/12/21 08:15:19;;;;;;;38.02;16.85;;;;;;;0.38;98.97;101097.45;1756103;81;21388;-77
2020/12/21 08:17:47;;;;;;;36.13;16.42;;;;;;;0.45;98.92;101096.92;1734245;82;21015;-74
2020/12/21 08:20:15;;;;;;;39.20;17.57;;;;;;;0.47;98.69;101093.48;1756004;81;21183;-76
2020/12/21 08:22:43;;;;;;;42.17;18.75;;;;;;;0.49;98.56;101100.03;1734384;82;20947;-79
2020/12/21 08:25:14;;;;;;;40.78;17.87;;;;;;;0.51;98.50;101099.30;1756083;81;20951;-78
2020/12/21 08:27:51;;;;;;;36.30;17.15;;;;;;;0.53;98.50;101095.86;1734360;82;21381;-73
2020/12/21 08:30:23;;;;;;;34.00;14.75;;;;;;;0.57;98.48;101100.63;1756147;81;21573;-77
2020/12/21 08:32:55;;;;;;;39.30;17.42;;;;;;;0.60;98.43;101093.42;1734299;82;28097;-77
2020/12/21 08:35:27;;;;;;;28.47;14.10;;;;;;;0.69;98.57;101095.89;1756255;81;20931;-76
2020/12/21 08:40:55;;;;;;;26.17;13.00;;;;;;;0.83;98.18;101086.69;1873714;76;22793;-72
2020/12/21 08:43:23;;;;;;;30.62;16.27;;;;;;;0.83;98.03;101086.69;1841669;77;20916;-76
2020/12/21 08:45:51;;;;;;;24.43;12.35;;;;;;;0.86;97.76;101092.50;1841583;78;23549;-77
2020/12/21 08:48:19;;;;;;;31.60;15.72;;;;;;;0.89;97.64;101088.02;1841657;78;21011;-76
2020/12/21 08:50:48;;;;;;;35.65;18.50;;;;;;;0.89;97.44;101083.13;1842151;77;20885;-75
2020/12/21 08:53:16;;;;;;;27.77;12.53;;;;;;;0.89;97.26;101083.96;1841621;78;20877;-83
2020/12/21 08:55:44;;;;;;;26.87;12.88;;;;;;;0.93;97.47;101085.19;1841668;78;20905;-83
2020/12/21 08:58:12;;;;;;;23.60;11.83;;;;;;;0.96;97.28;101087.98;1841661;78;21538;-79
2020/12/21 09:00:39;;;;;;;19.73;9.93;;;;;;;0.95;97.12;101084.98;1841539;78;20968;-77
2020/12/21 09:03:07;;;;;;;19.55;10.15;;;;;;;0.93;97.06;101082.48;1841636;78;20912;-74
2020/12/21 09:05:37;;;;;;;20.50;10.18;;;;;;;0.89;96.65;101081.78;1841658;78;20908;-81
2020/12/21 09:08:05;;;;;;;22.02;11.40;;;;;;;0.83;96.58;101079.41;1841488;77;20908;-77
2020/12/21 09:10:33;;;;;;;22.20;11.60;;;;;;;0.81;96.61;101077.97;1841357;77;21526;-83
2020/12/21 09:13:01;;;;;;;21.73;10.72;;;;;;;0.84;96.87;101074.83;1840710;78;21122;-86
2020/12/21 09:15:29;;;;;;;21.42;11.28;;;;;;;0.86;96.91;101067.34;1841739;77;20925;-85
2020/12/21 09:17:57;;;;;;;22.90;11.28;;;;;;;0.87;97.04;101071.70;1841461;78;21483;-85
2020/12/21 09:20:25;;;;;;;18.32;10.18;;;;;;;0.91;97.20;101068.35;1841668;78;20909;-78
2020/12/21 09:22:54;;;;;;;18.98;10.30;;;;;;;0.95;97.29;101064.70;1841636;78;21348;-76
2020/12/21 09:25:22;;;;;;;21.33;10.90;;;;;;;0.98;97.29;101066.45;1841601;78;21003;-76
2020/12/21 09:27:50;;;;;;;22.70;11.55;;;;;;;0.99;97.07;101062.70;1841578;78;21169;-77
2020/12/21 09:30:17;;;;;;;26.62;11.68;;;;;;;0.94;96.45;101058.45;1841646;78;20932;-78
2020/12/21 09:32:45;;;;;;;23.25;11.90;;;;;;;0.91;96.56;101056.70;1841735;78;20869;-81
2020/12/21 09:35:13;;;;;;;27.87;14.28;;;;;;;0.92;96.80;101048.91;1841489;78;21527;-84
2020/12/21 09:37:41;;;;;;;23.40;11.63;;;;;;;0.95;96.95;101043.06;1808584;79;20976;-89
2020/12/21 09:40:10;;;;;;;31.07;13.88;;;;;;;0.95;96.82;101034.43;1808372;79;21530;-81
2020/12/21 09:42:39;;;;;;;29.42;13.55;;;;;;;0.95;96.67;101037.66;1820478;77;20973;-81
2020/12/21 09:45:07;;;;;;;29.80;12.50;;;;;;;0.94;96.70;101036.00;1808061;78;21135;-81
2020/12/21 09:47:35;;;;;;;27.70;12.70;;;;;;;0.94;96.62;101040.05;1794094;80;21484;-78
2020/12/21 09:50:02;;;;;;;30.92;14.60;;;;;;;0.93;96.44;101047.86;1794051;79;21001;-80
2020/12/21 09:52:30;;;;;;;33.83;14.58;;;;;;;0.93;96.56;101041.92;1793651;80;21555;-82
2020/12/21 09:54:58;;;;;;;29.55;12.55;;;;;;;0.94;96.60;101046.30;1793594;80;20874;-89
2020/12/21 09:57:26;;;;;;;30.48;14.05;;;;;;;0.95;96.61;101047.12;1793642;80;20902;-83
2020/12/21 09:59:54;;;;;;;35.52;15.03;;;;;;;0.92;96.29;101044.84;1793520;80;21490;-77
2020/12/21 10:02:21;;;;;;;30.20;14.07;;;;;;;0.89;96.35;101038.52;1796091;78;21554;-78
2020/12/21 10:04:50;;;;;;;23.45;11.97;;;;;;;0.87;96.42;101034.67;1813705;78;21011;-78
2020/12/21 10:07:17;;;;;;;27.48;12.18;;;;;;;0.92;96.61;101039.44;1813700;78;20884;-78
2020/12/21 10:09:46;;;;;;;22.80;11.88;;;;;;;0.94;96.59;101033.30;1813704;79;20880;-81
2020/12/21 10:12:14;;;;;;;25.48;12.00;;;;;;;0.94;96.38;101033.30;1817098;78;21355;-75
2020/12/21 10:14:44;;;;;;;23.38;11.38;;;;;;;0.91;96.27;101034.55;1817942;78;21473;-77
2020/12/21 10:17:12;;;;;;;31.37;13.55;;;;;;;0.89;96.24;101037.17;1799758;79;21001;-76
2020/12/21 10:19:40;;;;;;;33.20;13.98;;;;;;;0.85;96.20;101030.53;1799657;79;20941;-87
2020/12/21 10:22:07;;;;;;;29.15;13.65;;;;;;;0.83;96.37;101029.91;1799747;79;20993;-90
2020/12/21 10:24:35;;;;;;;31.00;14.15;;;;;;;0.82;96.38;101030.96;1799769;79;21352;-85
2020/12/21 10:27:03;;;;;;;37.38;15.88;;;;;;;0.81;96.48;101027.43;1770978;79;20985;-79
2020/12/21 10:29:31;;;;;;;35.03;16.15;;;;;;;0.84;96.71;101028.35;1799743;79;20962;-85
2020/12/21 10:31:59;;;;;;;35.03;15.32;;;;;;;0.86;96.78;101027.61;1799697;79;21049;-83
2020/12/21 10:34:27;;;;;;;35.48;15.15;;;;;;;0.87;96.88;101022.52;1799734;79;20878;-79
2020/12/21 10:36:56;;;;;;;30.48;12.68;;;;;;;0.85;96.72;101026.48;1799727;79;21370;-81
2020/12/21 10:39:23;;;;;;;29.85;12.78;;;;;;;0.79;96.55;101020.58;1799511;79;22030;-82
2020/12/21 10:41:52;;;;;;;30.30;14.13;;;;;;;0.74;96.50;101017.69;1802238;78;20995;-75
2020/12/21 10:44:20;;;;;;;36.50;15.93;;;;;;;0.73;96.81;101016.03;1812990;79;21550;-76
2020/12/21 10:46:48;;;;;;;36.48;14.87;;;;;;;0.73;96.98;101008.75;1799770;79;21421;-75
2020/12/21 10:49:15;;;;;;;33.08;13.98;;;;;;;0.72;97.03;101014.38;1799706;79;21266;-75
2020/12/21 10:51:44;;;;;;;38.50;14.93;;;;;;;0.71;97.09;101015.42;1799636;79;20893;-71
2020/12/21 10:54:11;;;;;;;37.45;15.75;;;;;;;0.71;97.21;101008.14;1799983;79;21575;-73
2020/12/21 10:56:39;;;;;;;41.28;16.07;;;;;;;0.74;97.52;101009.58;1813877;79;21641;-73
2020/12/21 10:59:08;;;;;;;41.50;16.15;;;;;;;0.78;97.65;101007.59;1813894;79;20971;-73
2020/12/21 11:01:35;;;;;;;39.15;16.07;;;;;;;0.82;97.61;101014.74;1813860;79;21192;-73
2020/12/21 11:04:03;;;;;;;48.40;20.17;;;;;;;0.75;97.36;101005.84;1813709;79;20932;-74
2020/12/21 11:06:31;;;;;;;47.20;17.90;;;;;;;0.72;97.54;101009.80;1813858;79;21133;-72
2020/12/21 11:08:59;;;;;;;42.48;17.65;;;;;;;0.74;97.80;101011.77;1789126;79;21204;-73
2020/12/21 11:11:29;;;;;;;44.73;17.32;;;;;;;0.74;97.88;101006.87;1813902;78;20916;-74
2020/12/21 11:13:59;;;;;;;43.70;16.50;;;;;;;0.74;97.95;101009.58;1813524;79;21413;-73
2020/12/21 11:16:27;;;;;;;48.25;17.70;;;;;;;0.72;98.06;101011.15;1804922;77;20991;-73
2020/12/21 11:18:54;;;;;;;45.55;17.37;;;;;;;0.69;98.11;101008.88;1812806;79;20912;-74
2020/12/21 11:21:22;;;;;;;46.02;16.95;;;;;;;0.66;98.26;101008.78;1812114;79;21004;-75